Muscatine, IA

7:55 PM CST on December 09, 2016 (GMT -0600)
| | Change Station
Active Advisory: Winter Weather Advisory

Elev -9999 ft 0.00 °N, 0.00 °E | Updated 0 second ago

Overcast
Overcast
75 °F
Feels Like 75 °F
N
3
Wind Variable Wind from South
Gusts mph

Today
High -- | Low -- °F
--% Chance of Precip.
Yesterday
High -- | Low -- °F
Precip. -- in
Pressure 30.58 in
Visibility 10.0 miles
Clouds Overcast 7000 ft
Dew Point 59 °F
Humidity 58%
Rainfall --
Snow Depth Not available.
7:19 AM 4:34 PM
Waxing Gibbous, 79% visible
METAR KMUT 100135Z AUTO 24003KT 10SM OVC070 M06/M10 A3058 RMK AO2
Pressure 30.58 in
Visibility 10.0 miles
Clouds Overcast 7000 ft
Dew Point 59 °F
Humidity 58%
Rainfall --
Snow Depth Not available.
7:19 AM 4:34 PM
Waxing Gibbous, 79% visible
METAR KMUT 100135Z AUTO 24003KT 10SM OVC070 M06/M10 A3058 RMK AO2

10-Day Weather Forecast

Almanac

Astronomy

Dec. 09, 2016 Rise Set
Actual Time
Civil Twilight
Nautical Twilight
Astronomical Twilight
Moon
Length of Visible Light
Length of Day
Tomorrow will be .
, % of the Moon is Illuminated

Today's Extremes

State Highs State Lows

Community

WunderPhotos

Upload Photos

1,956,532 photos uploaded!

WunderBlog® & News

Nearby

Air Quality

  Air Quality AQ Index Pollutant
Not available.

Snow Depth

Station Depth Elevation

Earthquake Activity

City Distance Mag. Time & Date
Minimum magnitude displayed is 2.5.

Coastal Water Temperatures

Place Temperature

Stations

Nearby Weather Stations

Station Location Temp. Windchill Dew Point Humidity Wind Precip. Elev Updated Type
                   

Watches & Warnings

Winter Weather Advisory
Issued: 3:36 PM CST Dec. 9, 2016 – National Weather Service

... Winter Weather Advisory remains in effect from 3 PM Saturday
to 6 PM CST Sunday...

* timing... snow will begin during the late afternoon Saturday in
Iowa. Snow will continue overnight and through Sunday.

* Snow accumulations... 3 to 5 inches.

* Wind... southeast 10 to 15 mph with gusts up to 20 mph.

* Temperatures... in the upper 20s.

* Impacts... light to moderate snow will create slippery travel
conditions over the area... and will reduce visibility to
under 1 mile at times.

Precautionary/preparedness actions...

A Winter Weather Advisory for snow means that periods of snow
will cause primarily travel difficulties. Be prepared for snow
covered roads and limited visibilities... and use caution while
driving.